sensor_id;sensor_type;location;lat;lon;timestamp;P1;durP1;ratioP1;P2;durP2;ratioP2
12519;SDS011;6325;49.540;8.364;2024-01-30T00:02:01;13.50;;;12.10;;
12519;SDS011;6325;49.540;8.364;2024-01-30T00:04:28;13.07;;;11.77;;
12519;SDS011;6325;49.540;8.364;2024-01-30T00:06:56;12.73;;;11.48;;
12519;SDS011;6325;49.540;8.364;2024-01-30T00:09:23;12.13;;;10.98;;
12519;SDS011;6325;49.540;8.364;2024-01-30T00:11:49;12.45;;;11.25;;
12519;SDS011;6325;49.540;8.364;2024-01-30T00:14:16;12.65;;;11.35;;
12519;SDS011;6325;49.540;8.364;2024-01-30T00:16:43;12.55;;;11.35;;
12519;SDS011;6325;49.540;8.364;2024-01-30T00:19:10;13.05;;;11.48;;
12519;SDS011;6325;49.540;8.364;2024-01-30T00:21:37;12.57;;;11.27;;
12519;SDS011;6325;49.540;8.364;2024-01-30T00:24:06;13.10;;;11.80;;
12519;SDS011;6325;49.540;8.364;2024-01-30T00:26:32;12.98;;;11.68;;
12519;SDS011;6325;49.540;8.364;2024-01-30T00:28:59;12.20;;;10.93;;
12519;SDS011;6325;49.540;8.364;2024-01-30T00:31:26;13.00;;;11.70;;
12519;SDS011;6325;49.540;8.364;2024-01-30T00:33:53;12.85;;;11.55;;
12519;SDS011;6325;49.540;8.364;2024-01-30T00:36:20;12.48;;;11.27;;
12519;SDS011;6325;49.540;8.364;2024-01-30T00:38:46;13.25;;;11.95;;
12519;SDS011;6325;49.540;8.364;2024-01-30T00:41:15;13.57;;;12.18;;
12519;SDS011;6325;49.540;8.364;2024-01-30T00:43:44;13.57;;;12.27;;
12519;SDS011;6325;49.540;8.364;2024-01-30T00:46:11;13.55;;;12.15;;
12519;SDS011;6325;49.540;8.364;2024-01-30T00:48:37;13.32;;;11.93;;
12519;SDS011;6325;49.540;8.364;2024-01-30T00:51:04;13.80;;;12.30;;
12519;SDS011;6325;49.540;8.364;2024-01-30T00:53:31;13.48;;;12.18;;
12519;SDS011;6325;49.540;8.364;2024-01-30T00:55:58;12.90;;;11.60;;
12519;SDS011;6325;49.540;8.364;2024-01-30T00:58:26;12.18;;;10.98;;
12519;SDS011;6325;49.540;8.364;2024-01-30T01:00:53;11.68;;;10.48;;
12519;SDS011;6325;49.540;8.364;2024-01-30T01:03:19;12.68;;;11.38;;
12519;SDS011;6325;49.540;8.364;2024-01-30T01:05:46;11.77;;;10.68;;
12519;SDS011;6325;49.540;8.364;2024-01-30T01:08:13;11.88;;;10.70;;
12519;SDS011;6325;49.540;8.364;2024-01-30T01:10:40;11.95;;;10.68;;
12519;SDS011;6325;49.540;8.364;2024-01-30T01:13:07;11.85;;;10.70;;
12519;SDS011;6325;49.540;8.364;2024-01-30T01:15:35;11.43;;;10.32;;
12519;SDS011;6325;49.540;8.364;2024-01-30T01:18:02;10.43;;;9.43;;
12519;SDS011;6325;49.540;8.364;2024-01-30T01:20:29;12.20;;;11.00;;
12519;SDS011;6325;49.540;8.364;2024-01-30T01:22:56;11.88;;;10.68;;
12519;SDS011;6325;49.540;8.364;2024-01-30T01:25:22;11.23;;;10.13;;
12519;SDS011;6325;49.540;8.364;2024-01-30T01:27:49;11.02;;;9.93;;
12519;SDS011;6325;49.540;8.364;2024-01-30T01:30:17;10.18;;;9.18;;
12519;SDS011;6325;49.540;8.364;2024-01-30T01:32:48;10.23;;;9.13;;
12519;SDS011;6325;49.540;8.364;2024-01-30T01:35:20;9.55;;;8.68;;
12519;SDS011;6325;49.540;8.364;2024-01-30T01:37:47;9.90;;;9.00;;
12519;SDS011;6325;49.540;8.364;2024-01-30T01:40:19;10.38;;;9.38;;
12519;SDS011;6325;49.540;8.364;2024-01-30T01:42:47;10.23;;;9.23;;
12519;SDS011;6325;49.540;8.364;2024-01-30T01:45:14;9.70;;;8.73;;
12519;SDS011;6325;49.540;8.364;2024-01-30T01:47:40;9.35;;;8.48;;
12519;SDS011;6325;49.540;8.364;2024-01-30T01:50:09;9.98;;;8.98;;
12519;SDS011;6325;49.540;8.364;2024-01-30T01:52:36;9.77;;;8.88;;
12519;SDS011;6325;49.540;8.364;2024-01-30T01:55:05;11.52;;;10.32;;
12519;SDS011;6325;49.540;8.364;2024-01-30T01:57:33;10.47;;;9.40;;
12519;SDS011;6325;49.540;8.364;2024-01-30T02:00:00;9.80;;;8.80;;
12519;SDS011;6325;49.540;8.364;2024-01-30T02:02:27;9.40;;;8.60;;
12519;SDS011;6325;49.540;8.364;2024-01-30T02:04:57;10.63;;;9.57;;
12519;SDS011;6325;49.540;8.364;2024-01-30T02:07:25;9.68;;;8.77;;
12519;SDS011;6325;49.540;8.364;2024-01-30T02:09:53;10.63;;;9.63;;
12519;SDS011;6325;49.540;8.364;2024-01-30T02:12:20;10.57;;;9.53;;
12519;SDS011;6325;49.540;8.364;2024-01-30T02:14:47;10.80;;;9.70;;
12519;SDS011;6325;49.540;8.364;2024-01-30T02:17:16;10.03;;;9.13;;
12519;SDS011;6325;49.540;8.364;2024-01-30T02:19:43;10.20;;;9.20;;
12519;SDS011;6325;49.540;8.364;2024-01-30T02:22:11;10.27;;;9.27;;
12519;SDS011;6325;49.540;8.364;2024-01-30T02:24:39;10.68;;;9.57;;
12519;SDS011;6325;49.540;8.364;2024-01-30T02:27:05;10.15;;;9.15;;
12519;SDS011;6325;49.540;8.364;2024-01-30T02:29:32;10.07;;;9.13;;
12519;SDS011;6325;49.540;8.364;2024-01-30T02:31:59;9.80;;;8.80;;
12519;SDS011;6325;49.540;8.364;2024-01-30T02:34:26;9.88;;;8.98;;
12519;SDS011;6325;49.540;8.364;2024-01-30T02:36:52;10.35;;;9.35;;
12519;SDS011;6325;49.540;8.364;2024-01-30T02:39:20;9.90;;;9.00;;
12519;SDS011;6325;49.540;8.364;2024-01-30T02:41:47;9.83;;;8.93;;
12519;SDS011;6325;49.540;8.364;2024-01-30T02:44:14;10.05;;;9.07;;
12519;SDS011;6325;49.540;8.364;2024-01-30T02:46:40;10.20;;;9.20;;
12519;SDS011;6325;49.540;8.364;2024-01-30T02:49:07;9.98;;;9.05;;
12519;SDS011;6325;49.540;8.364;2024-01-30T02:51:33;9.50;;;8.60;;
12519;SDS011;6325;49.540;8.364;2024-01-30T02:54:00;11.43;;;10.33;;
12519;SDS011;6325;49.540;8.364;2024-01-30T02:56:28;9.63;;;8.73;;
12519;SDS011;6325;49.540;8.364;2024-01-30T02:58:55;11.17;;;10.07;;
12519;SDS011;6325;49.540;8.364;2024-01-30T03:01:21;10.73;;;9.65;;
12519;SDS011;6325;49.540;8.364;2024-01-30T03:03:49;10.68;;;9.68;;
12519;SDS011;6325;49.540;8.364;2024-01-30T03:06:16;10.17;;;9.17;;
12519;SDS011;6325;49.540;8.364;2024-01-30T03:08:45;10.60;;;9.60;;
12519;SDS011;6325;49.540;8.364;2024-01-30T03:11:11;9.93;;;9.02;;
12519;SDS011;6325;49.540;8.364;2024-01-30T03:13:39;9.60;;;8.70;;
12519;SDS011;6325;49.540;8.364;2024-01-30T03:16:08;10.77;;;9.68;;
12519;SDS011;6325;49.540;8.364;2024-01-30T03:18:34;10.15;;;9.25;;
12519;SDS011;6325;49.540;8.364;2024-01-30T03:21:01;10.00;;;9.10;;
12519;SDS011;6325;49.540;8.364;2024-01-30T03:23:28;10.23;;;9.23;;
12519;SDS011;6325;49.540;8.364;2024-01-30T03:26:00;11.13;;;10.00;;
12519;SDS011;6325;49.540;8.364;2024-01-30T03:28:29;10.38;;;9.38;;
12519;SDS011;6325;49.540;8.364;2024-01-30T03:30:57;10.95;;;9.85;;
12519;SDS011;6325;49.540;8.364;2024-01-30T03:33:24;11.32;;;10.20;;
12519;SDS011;6325;49.540;8.364;2024-01-30T03:35:50;10.77;;;9.77;;
12519;SDS011;6325;49.540;8.364;2024-01-30T03:38:17;11.00;;;9.90;;
12519;SDS011;6325;49.540;8.364;2024-01-30T03:40:44;10.77;;;9.77;;
12519;SDS011;6325;49.540;8.364;2024-01-30T03:43:11;10.95;;;9.85;;
12519;SDS011;6325;49.540;8.364;2024-01-30T03:45:37;11.20;;;10.10;;
12519;SDS011;6325;49.540;8.364;2024-01-30T03:48:06;10.93;;;9.90;;
12519;SDS011;6325;49.540;8.364;2024-01-30T03:50:33;10.30;;;9.35;;
12519;SDS011;6325;49.540;8.364;2024-01-30T03:53:00;11.00;;;10.00;;
12519;SDS011;6325;49.540;8.364;2024-01-30T03:55:26;10.30;;;9.30;;
12519;SDS011;6325;49.540;8.364;2024-01-30T03:57:53;10.57;;;9.48;;
12519;SDS011;6325;49.540;8.364;2024-01-30T04:00:20;10.00;;;9.10;;
12519;SDS011;6325;49.540;8.364;2024-01-30T04:02:47;10.32;;;9.32;;
12519;SDS011;6325;49.540;8.364;2024-01-30T04:05:17;10.30;;;9.30;;
12519;SDS011;6325;49.540;8.364;2024-01-30T04:07:44;9.80;;;8.80;;
12519;SDS011;6325;49.540;8.364;2024-01-30T04:10:10;10.10;;;9.10;;
12519;SDS011;6325;49.540;8.364;2024-01-30T04:12:37;10.70;;;9.70;;
12519;SDS011;6325;49.540;8.364;2024-01-30T04:15:04;10.45;;;9.40;;
12519;SDS011;6325;49.540;8.364;2024-01-30T04:17:31;10.20;;;9.23;;
12519;SDS011;6325;49.540;8.364;2024-01-30T04:19:58;9.85;;;8.95;;
12519;SDS011;6325;49.540;8.364;2024-01-30T04:22:26;9.90;;;9.00;;
12519;SDS011;6325;49.540;8.364;2024-01-30T04:24:53;9.48;;;8.57;;
12519;SDS011;6325;49.540;8.364;2024-01-30T04:27:19;9.43;;;8.52;;
12519;SDS011;6325;49.540;8.364;2024-01-30T04:29:46;10.07;;;9.07;;
12519;SDS011;6325;49.540;8.364;2024-01-30T04:32:13;10.23;;;9.25;;
12519;SDS011;6325;49.540;8.364;2024-01-30T04:34:39;10.20;;;9.20;;
12519;SDS011;6325;49.540;8.364;2024-01-30T04:37:06;10.10;;;9.13;;
12519;SDS011;6325;49.540;8.364;2024-01-30T04:39:34;10.65;;;9.55;;
12519;SDS011;6325;49.540;8.364;2024-01-30T04:42:02;10.10;;;9.10;;
12519;SDS011;6325;49.540;8.364;2024-01-30T04:44:29;9.60;;;8.70;;
12519;SDS011;6325;49.540;8.364;2024-01-30T04:46:56;9.90;;;8.90;;
12519;SDS011;6325;49.540;8.364;2024-01-30T04:49:24;9.90;;;8.90;;
12519;SDS011;6325;49.540;8.364;2024-01-30T04:51:50;9.48;;;8.57;;
12519;SDS011;6325;49.540;8.364;2024-01-30T04:54:17;9.32;;;8.43;;
12519;SDS011;6325;49.540;8.364;2024-01-30T04:56:45;9.38;;;8.48;;
12519;SDS011;6325;49.540;8.364;2024-01-30T04:59:12;9.20;;;8.30;;
12519;SDS011;6325;49.540;8.364;2024-01-30T05:01:39;9.00;;;8.20;;
12519;SDS011;6325;49.540;8.364;2024-01-30T05:04:07;8.75;;;7.93;;
12519;SDS011;6325;49.540;8.364;2024-01-30T05:06:34;8.13;;;7.40;;
12519;SDS011;6325;49.540;8.364;2024-01-30T05:09:00;7.95;;;7.18;;
12519;SDS011;6325;49.540;8.364;2024-01-30T05:11:29;7.50;;;6.80;;
12519;SDS011;6325;49.540;8.364;2024-01-30T05:13:57;7.38;;;6.68;;
12519;SDS011;6325;49.540;8.364;2024-01-30T05:16:24;6.97;;;6.37;;
12519;SDS011;6325;49.540;8.364;2024-01-30T05:18:50;7.10;;;6.43;;
12519;SDS011;6325;49.540;8.364;2024-01-30T05:21:17;7.53;;;6.82;;
12519;SDS011;6325;49.540;8.364;2024-01-30T05:23:44;7.32;;;6.72;;
12519;SDS011;6325;49.540;8.364;2024-01-30T05:26:11;7.13;;;6.43;;
12519;SDS011;6325;49.540;8.364;2024-01-30T05:28:37;7.10;;;6.50;;
12519;SDS011;6325;49.540;8.364;2024-01-30T05:31:05;6.55;;;5.90;;
12519;SDS011;6325;49.540;8.364;2024-01-30T05:33:32;5.95;;;5.45;;
12519;SDS011;6325;49.540;8.364;2024-01-30T05:35:59;6.28;;;5.75;;
12519;SDS011;6325;49.540;8.364;2024-01-30T05:38:26;5.95;;;5.45;;
12519;SDS011;6325;49.540;8.364;2024-01-30T05:40:53;5.88;;;5.38;;
12519;SDS011;6325;49.540;8.364;2024-01-30T05:43:20;6.32;;;5.75;;
12519;SDS011;6325;49.540;8.364;2024-01-30T05:45:47;6.88;;;6.18;;
12519;SDS011;6325;49.540;8.364;2024-01-30T05:48:15;6.10;;;5.50;;
12519;SDS011;6325;49.540;8.364;2024-01-30T05:50:41;6.65;;;6.05;;
12519;SDS011;6325;49.540;8.364;2024-01-30T05:53:08;6.03;;;5.53;;
12519;SDS011;6325;49.540;8.364;2024-01-30T05:55:35;6.10;;;5.60;;
12519;SDS011;6325;49.540;8.364;2024-01-30T05:58:02;5.87;;;5.37;;
12519;SDS011;6325;49.540;8.364;2024-01-30T06:00:29;5.78;;;5.28;;
12519;SDS011;6325;49.540;8.364;2024-01-30T06:02:56;5.87;;;5.33;;
12519;SDS011;6325;49.540;8.364;2024-01-30T06:05:24;6.15;;;5.65;;
12519;SDS011;6325;49.540;8.364;2024-01-30T06:07:50;5.60;;;5.20;;
12519;SDS011;6325;49.540;8.364;2024-01-30T06:10:19;5.60;;;5.10;;
12519;SDS011;6325;49.540;8.364;2024-01-30T06:12:45;6.43;;;5.82;;
12519;SDS011;6325;49.540;8.364;2024-01-30T06:15:13;5.97;;;5.47;;
12519;SDS011;6325;49.540;8.364;2024-01-30T06:17:40;6.90;;;6.20;;
12519;SDS011;6325;49.540;8.364;2024-01-30T06:20:07;6.63;;;6.03;;
12519;SDS011;6325;49.540;8.364;2024-01-30T06:22:35;6.22;;;5.63;;
12519;SDS011;6325;49.540;8.364;2024-01-30T06:25:02;6.22;;;5.63;;
12519;SDS011;6325;49.540;8.364;2024-01-30T06:27:29;6.80;;;6.20;;
12519;SDS011;6325;49.540;8.364;2024-01-30T06:29:56;6.13;;;5.53;;
12519;SDS011;6325;49.540;8.364;2024-01-30T06:32:23;6.30;;;5.70;;
12519;SDS011;6325;49.540;8.364;2024-01-30T06:34:49;6.20;;;5.60;;
12519;SDS011;6325;49.540;8.364;2024-01-30T06:37:16;6.15;;;5.60;;
12519;SDS011;6325;49.540;8.364;2024-01-30T06:39:44;6.63;;;6.03;;
12519;SDS011;6325;49.540;8.364;2024-01-30T06:42:11;6.53;;;5.93;;
12519;SDS011;6325;49.540;8.364;2024-01-30T06:44:38;6.65;;;6.05;;
12519;SDS011;6325;49.540;8.364;2024-01-30T06:47:04;6.50;;;5.90;;
12519;SDS011;6325;49.540;8.364;2024-01-30T06:49:31;6.72;;;6.13;;
12519;SDS011;6325;49.540;8.364;2024-01-30T06:51:58;6.72;;;6.13;;
12519;SDS011;6325;49.540;8.364;2024-01-30T06:54:25;7.27;;;6.57;;
12519;SDS011;6325;49.540;8.364;2024-01-30T06:56:53;7.72;;;6.93;;
12519;SDS011;6325;49.540;8.364;2024-01-30T06:59:20;6.80;;;6.20;;
12519;SDS011;6325;49.540;8.364;2024-01-30T07:01:46;6.82;;;6.22;;
12519;SDS011;6325;49.540;8.364;2024-01-30T07:04:13;6.68;;;6.07;;
12519;SDS011;6325;49.540;8.364;2024-01-30T07:06:41;6.40;;;5.90;;
12519;SDS011;6325;49.540;8.364;2024-01-30T07:09:08;6.57;;;5.97;;
12519;SDS011;6325;49.540;8.364;2024-01-30T07:11:34;7.22;;;6.53;;
12519;SDS011;6325;49.540;8.364;2024-01-30T07:14:03;6.78;;;6.18;;
12519;SDS011;6325;49.540;8.364;2024-01-30T07:16:30;7.43;;;6.72;;
12519;SDS011;6325;49.540;8.364;2024-01-30T07:18:56;7.43;;;6.72;;
12519;SDS011;6325;49.540;8.364;2024-01-30T07:21:23;8.63;;;7.82;;
12519;SDS011;6325;49.540;8.364;2024-01-30T07:23:53;8.57;;;7.78;;
12519;SDS011;6325;49.540;8.364;2024-01-30T07:26:20;8.95;;;7.97;;
12519;SDS011;6325;49.540;8.364;2024-01-30T07:28:46;8.48;;;7.68;;
12519;SDS011;6325;49.540;8.364;2024-01-30T07:31:16;8.20;;;7.40;;
12519;SDS011;6325;49.540;8.364;2024-01-30T07:33:45;8.77;;;7.97;;
12519;SDS011;6325;49.540;8.364;2024-01-30T07:36:12;8.70;;;7.90;;
12519;SDS011;6325;49.540;8.364;2024-01-30T07:38:39;9.02;;;8.13;;
12519;SDS011;6325;49.540;8.364;2024-01-30T07:41:06;9.57;;;8.57;;
12519;SDS011;6325;49.540;8.364;2024-01-30T07:43:33;11.32;;;10.13;;
12519;SDS011;6325;49.540;8.364;2024-01-30T07:46:00;10.75;;;9.65;;
12519;SDS011;6325;49.540;8.364;2024-01-30T07:48:29;12.03;;;10.73;;
12519;SDS011;6325;49.540;8.364;2024-01-30T07:50:58;12.77;;;10.60;;
12519;SDS011;6325;49.540;8.364;2024-01-30T07:53:25;11.73;;;10.50;;
12519;SDS011;6325;49.540;8.364;2024-01-30T07:55:52;12.35;;;10.93;;
12519;SDS011;6325;49.540;8.364;2024-01-30T07:58:19;10.77;;;9.68;;
12519;SDS011;6325;49.540;8.364;2024-01-30T08:00:46;9.70;;;8.70;;
12519;SDS011;6325;49.540;8.364;2024-01-30T08:03:13;9.10;;;8.20;;
12519;SDS011;6325;49.540;8.364;2024-01-30T08:05:42;8.98;;;8.07;;
12519;SDS011;6325;49.540;8.364;2024-01-30T08:08:09;9.32;;;8.20;;
12519;SDS011;6325;49.540;8.364;2024-01-30T08:10:36;8.43;;;7.63;;
12519;SDS011;6325;49.540;8.364;2024-01-30T08:13:03;8.50;;;7.70;;
12519;SDS011;6325;49.540;8.364;2024-01-30T08:15:30;8.85;;;8.05;;
12519;SDS011;6325;49.540;8.364;2024-01-30T08:17:56;9.20;;;8.32;;
12519;SDS011;6325;49.540;8.364;2024-01-30T08:20:24;8.57;;;7.75;;
12519;SDS011;6325;49.540;8.364;2024-01-30T08:22:52;7.97;;;7.28;;
12519;SDS011;6325;49.540;8.364;2024-01-30T08:25:19;7.72;;;7.00;;
12519;SDS011;6325;49.540;8.364;2024-01-30T08:27:46;7.28;;;6.63;;
12519;SDS011;6325;49.540;8.364;2024-01-30T08:30:13;7.57;;;6.88;;
12519;SDS011;6325;49.540;8.364;2024-01-30T08:32:41;7.53;;;6.82;;
12519;SDS011;6325;49.540;8.364;2024-01-30T08:35:07;7.47;;;6.77;;
12519;SDS011;6325;49.540;8.364;2024-01-30T08:37:34;7.47;;;6.82;;
12519;SDS011;6325;49.540;8.364;2024-01-30T08:40:03;7.00;;;6.40;;
12519;SDS011;6325;49.540;8.364;2024-01-30T08:42:30;7.05;;;6.45;;
12519;SDS011;6325;49.540;8.364;2024-01-30T08:44:58;7.57;;;6.85;;
12519;SDS011;6325;49.540;8.364;2024-01-30T08:47:25;7.47;;;6.63;;
12519;SDS011;6325;49.540;8.364;2024-01-30T08:49:51;6.72;;;6.22;;
12519;SDS011;6325;49.540;8.364;2024-01-30T08:52:18;7.40;;;6.70;;
12519;SDS011;6325;49.540;8.364;2024-01-30T08:54:45;7.90;;;7.22;;
12519;SDS011;6325;49.540;8.364;2024-01-30T08:57:15;7.70;;;7.00;;
12519;SDS011;6325;49.540;8.364;2024-01-30T08:59:41;7.30;;;6.70;;
12519;SDS011;6325;49.540;8.364;2024-01-30T09:02:09;7.28;;;6.68;;
12519;SDS011;6325;49.540;8.364;2024-01-30T09:04:38;8.10;;;7.40;;
12519;SDS011;6325;49.540;8.364;2024-01-30T09:07:04;7.93;;;7.20;;
12519;SDS011;6325;49.540;8.364;2024-01-30T09:09:34;7.60;;;6.90;;
12519;SDS011;6325;49.540;8.364;2024-01-30T09:12:00;7.63;;;6.93;;
12519;SDS011;6325;49.540;8.364;2024-01-30T09:14:33;8.32;;;7.53;;
12519;SDS011;6325;49.540;8.364;2024-01-30T09:17:00;7.87;;;7.17;;
12519;SDS011;6325;49.540;8.364;2024-01-30T09:19:28;7.85;;;7.15;;
12519;SDS011;6325;49.540;8.364;2024-01-30T09:21:54;8.75;;;7.95;;
12519;SDS011;6325;49.540;8.364;2024-01-30T09:24:21;8.02;;;7.32;;
12519;SDS011;6325;49.540;8.364;2024-01-30T09:26:48;9.10;;;8.20;;
12519;SDS011;6325;49.540;8.364;2024-01-30T09:29:15;8.10;;;7.40;;
12519;SDS011;6325;49.540;8.364;2024-01-30T09:31:44;8.00;;;7.30;;
12519;SDS011;6325;49.540;8.364;2024-01-30T09:34:10;7.80;;;7.10;;
12519;SDS011;6325;49.540;8.364;2024-01-30T09:36:37;8.37;;;7.57;;
12519;SDS011;6325;49.540;8.364;2024-01-30T09:39:04;8.63;;;7.72;;
12519;SDS011;6325;49.540;8.364;2024-01-30T09:41:32;7.85;;;7.15;;
12519;SDS011;6325;49.540;8.364;2024-01-30T09:43:59;7.95;;;7.18;;
12519;SDS011;6325;49.540;8.364;2024-01-30T09:46:27;7.32;;;6.63;;
12519;SDS011;6325;49.540;8.364;2024-01-30T09:48:56;7.40;;;6.78;;
12519;SDS011;6325;49.540;8.364;2024-01-30T09:51:23;7.35;;;6.75;;
12519;SDS011;6325;49.540;8.364;2024-01-30T09:53:51;7.20;;;6.60;;
12519;SDS011;6325;49.540;8.364;2024-01-30T09:56:19;7.80;;;7.10;;
12519;SDS011;6325;49.540;8.364;2024-01-30T09:58:46;7.50;;;6.80;;
12519;SDS011;6325;49.540;8.364;2024-01-30T10:01:13;7.90;;;7.20;;
12519;SDS011;6325;49.540;8.364;2024-01-30T10:03:43;7.90;;;7.10;;
12519;SDS011;6325;49.540;8.364;2024-01-30T10:06:11;7.60;;;6.90;;
12519;SDS011;6325;49.540;8.364;2024-01-30T10:08:38;7.53;;;6.82;;
12519;SDS011;6325;49.540;8.364;2024-01-30T10:11:05;7.60;;;6.90;;
12519;SDS011;6325;49.540;8.364;2024-01-30T10:13:32;8.38;;;7.57;;
12519;SDS011;6325;49.540;8.364;2024-01-30T10:15:59;7.82;;;7.13;;
12519;SDS011;6325;49.540;8.364;2024-01-30T10:18:28;8.15;;;7.35;;
12519;SDS011;6325;49.540;8.364;2024-01-30T10:20:54;8.50;;;7.67;;
12519;SDS011;6325;49.540;8.364;2024-01-30T10:23:23;8.55;;;7.80;;
12519;SDS011;6325;49.540;8.364;2024-01-30T10:25:50;9.90;;;8.90;;
12519;SDS011;6325;49.540;8.364;2024-01-30T10:28:18;10.55;;;9.57;;
12519;SDS011;6325;49.540;8.364;2024-01-30T10:30:46;10.30;;;9.40;;
12519;SDS011;6325;49.540;8.364;2024-01-30T10:33:23;10.13;;;9.23;;
12519;SDS011;6325;49.540;8.364;2024-01-30T10:35:50;9.75;;;8.95;;
12519;SDS011;6325;49.540;8.364;2024-01-30T10:38:19;10.02;;;9.13;;
12519;SDS011;6325;49.540;8.364;2024-01-30T10:40:48;9.50;;;8.60;;
12519;SDS011;6325;49.540;8.364;2024-01-30T10:43:20;9.02;;;8.23;;
12519;SDS011;6325;49.540;8.364;2024-01-30T10:45:49;8.88;;;8.07;;
12519;SDS011;6325;49.540;8.364;2024-01-30T10:48:19;8.30;;;7.60;;
12519;SDS011;6325;49.540;8.364;2024-01-30T10:50:55;8.03;;;7.33;;
12519;SDS011;6325;49.540;8.364;2024-01-30T10:53:24;7.60;;;6.90;;
12519;SDS011;6325;49.540;8.364;2024-01-30T10:55:53;7.38;;;6.78;;
12519;SDS011;6325;49.540;8.364;2024-01-30T10:58:21;7.53;;;6.90;;
12519;SDS011;6325;49.540;8.364;2024-01-30T11:00:49;6.72;;;6.13;;
12519;SDS011;6325;49.540;8.364;2024-01-30T11:03:17;6.80;;;6.20;;
12519;SDS011;6325;49.540;8.364;2024-01-30T11:05:48;7.13;;;6.47;;
12519;SDS011;6325;49.540;8.364;2024-01-30T11:08:22;7.07;;;6.47;;
12519;SDS011;6325;49.540;8.364;2024-01-30T11:10:49;7.38;;;6.70;;
12519;SDS011;6325;49.540;8.364;2024-01-30T11:13:21;7.53;;;6.82;;
12519;SDS011;6325;49.540;8.364;2024-01-30T11:15:48;6.72;;;6.13;;
12519;SDS011;6325;49.540;8.364;2024-01-30T11:18:22;6.53;;;5.93;;
12519;SDS011;6325;49.540;8.364;2024-01-30T11:20:49;7.00;;;6.40;;
12519;SDS011;6325;49.540;8.364;2024-01-30T11:23:16;7.17;;;6.57;;
12519;SDS011;6325;49.540;8.364;2024-01-30T11:25:43;6.88;;;6.28;;
12519;SDS011;6325;49.540;8.364;2024-01-30T11:28:12;7.67;;;6.97;;
12519;SDS011;6325;49.540;8.364;2024-01-30T11:30:42;7.70;;;7.00;;
12519;SDS011;6325;49.540;8.364;2024-01-30T11:33:09;7.38;;;6.72;;
12519;SDS011;6325;49.540;8.364;2024-01-30T11:35:37;7.50;;;6.80;;
12519;SDS011;6325;49.540;8.364;2024-01-30T11:38:05;7.68;;;6.97;;
12519;SDS011;6325;49.540;8.364;2024-01-30T11:40:33;7.03;;;6.43;;
12519;SDS011;6325;49.540;8.364;2024-01-30T11:43:01;7.70;;;7.00;;
12519;SDS011;6325;49.540;8.364;2024-01-30T11:45:30;7.45;;;6.80;;
12519;SDS011;6325;49.540;8.364;2024-01-30T11:47:58;7.47;;;6.78;;
12519;SDS011;6325;49.540;8.364;2024-01-30T11:50:28;7.97;;;7.18;;
12519;SDS011;6325;49.540;8.364;2024-01-30T11:52:55;7.25;;;6.55;;
12519;SDS011;6325;49.540;8.364;2024-01-30T11:55:22;7.03;;;6.43;;
12519;SDS011;6325;49.540;8.364;2024-01-30T11:57:49;7.50;;;6.70;;
12519;SDS011;6325;49.540;8.364;2024-01-30T12:00:17;7.68;;;6.97;;
12519;SDS011;6325;49.540;8.364;2024-01-30T12:02:48;7.00;;;6.40;;
12519;SDS011;6325;49.540;8.364;2024-01-30T12:05:18;7.28;;;6.68;;
12519;SDS011;6325;49.540;8.364;2024-01-30T12:07:45;7.35;;;6.70;;
12519;SDS011;6325;49.540;8.364;2024-01-30T12:10:12;6.95;;;6.35;;
12519;SDS011;6325;49.540;8.364;2024-01-30T12:12:40;7.25;;;6.65;;
12519;SDS011;6325;49.540;8.364;2024-01-30T12:15:09;6.90;;;6.30;;
12519;SDS011;6325;49.540;8.364;2024-01-30T12:17:36;7.10;;;6.40;;
12519;SDS011;6325;49.540;8.364;2024-01-30T12:20:04;7.33;;;6.70;;
12519;SDS011;6325;49.540;8.364;2024-01-30T12:22:33;7.30;;;6.70;;
12519;SDS011;6325;49.540;8.364;2024-01-30T12:25:02;7.30;;;6.70;;
12519;SDS011;6325;49.540;8.364;2024-01-30T12:27:29;7.55;;;6.85;;
12519;SDS011;6325;49.540;8.364;2024-01-30T12:29:56;7.95;;;7.15;;
12519;SDS011;6325;49.540;8.364;2024-01-30T12:32:24;7.55;;;6.85;;
12519;SDS011;6325;49.540;8.364;2024-01-30T12:34:50;9.15;;;8.25;;
12519;SDS011;6325;49.540;8.364;2024-01-30T12:37:21;9.65;;;8.60;;
12519;SDS011;6325;49.540;8.364;2024-01-30T12:39:51;8.95;;;8.05;;
12519;SDS011;6325;49.540;8.364;2024-01-30T12:42:19;7.77;;;7.07;;
12519;SDS011;6325;49.540;8.364;2024-01-30T12:44:46;7.30;;;6.60;;
12519;SDS011;6325;49.540;8.364;2024-01-30T12:47:13;6.10;;;5.60;;
12519;SDS011;6325;49.540;8.364;2024-01-30T12:49:41;5.90;;;5.40;;
12519;SDS011;6325;49.540;8.364;2024-01-30T12:52:08;5.78;;;5.28;;
12519;SDS011;6325;49.540;8.364;2024-01-30T12:54:35;5.78;;;5.28;;
12519;SDS011;6325;49.540;8.364;2024-01-30T12:57:03;5.13;;;4.72;;
12519;SDS011;6325;49.540;8.364;2024-01-30T12:59:30;5.33;;;4.93;;
12519;SDS011;6325;49.540;8.364;2024-01-30T13:01:58;5.78;;;5.28;;
12519;SDS011;6325;49.540;8.364;2024-01-30T13:04:26;5.20;;;4.80;;
12519;SDS011;6325;49.540;8.364;2024-01-30T13:06:53;5.10;;;4.70;;
12519;SDS011;6325;49.540;8.364;2024-01-30T13:09:20;5.60;;;5.10;;
12519;SDS011;6325;49.540;8.364;2024-01-30T13:11:47;5.30;;;4.85;;
12519;SDS011;6325;49.540;8.364;2024-01-30T13:14:16;4.95;;;4.45;;
12519;SDS011;6325;49.540;8.364;2024-01-30T13:16:43;4.95;;;4.50;;
12519;SDS011;6325;49.540;8.364;2024-01-30T13:19:09;4.72;;;4.32;;
12519;SDS011;6325;49.540;8.364;2024-01-30T13:21:37;4.90;;;4.50;;
12519;SDS011;6325;49.540;8.364;2024-01-30T13:24:04;6.13;;;5.38;;
12519;SDS011;6325;49.540;8.364;2024-01-30T13:26:31;4.60;;;4.20;;
12519;SDS011;6325;49.540;8.364;2024-01-30T13:28:58;4.57;;;4.20;;
12519;SDS011;6325;49.540;8.364;2024-01-30T13:31:26;4.63;;;4.23;;
12519;SDS011;6325;49.540;8.364;2024-01-30T13:33:53;4.68;;;4.28;;
12519;SDS011;6325;49.540;8.364;2024-01-30T13:36:20;5.10;;;4.60;;
12519;SDS011;6325;49.540;8.364;2024-01-30T13:38:47;5.60;;;4.50;;
12519;SDS011;6325;49.540;8.364;2024-01-30T13:41:14;4.70;;;4.30;;
12519;SDS011;6325;49.540;8.364;2024-01-30T13:43:43;4.80;;;4.30;;
12519;SDS011;6325;49.540;8.364;2024-01-30T13:46:10;4.60;;;4.20;;
12519;SDS011;6325;49.540;8.364;2024-01-30T13:48:38;4.80;;;4.40;;
12519;SDS011;6325;49.540;8.364;2024-01-30T13:51:05;4.70;;;4.30;;
12519;SDS011;6325;49.540;8.364;2024-01-30T13:53:31;4.30;;;3.95;;
12519;SDS011;6325;49.540;8.364;2024-01-30T13:55:58;4.03;;;3.72;;
12519;SDS011;6325;49.540;8.364;2024-01-30T13:58:25;4.23;;;3.90;;
12519;SDS011;6325;49.540;8.364;2024-01-30T14:00:52;4.47;;;4.07;;
12519;SDS011;6325;49.540;8.364;2024-01-30T14:03:19;4.40;;;4.00;;
12519;SDS011;6325;49.540;8.364;2024-01-30T14:05:47;4.05;;;3.75;;
12519;SDS011;6325;49.540;8.364;2024-01-30T14:08:14;4.20;;;3.80;;
12519;SDS011;6325;49.540;8.364;2024-01-30T14:10:41;3.90;;;3.60;;
12519;SDS011;6325;49.540;8.364;2024-01-30T14:13:08;4.03;;;3.72;;
12519;SDS011;6325;49.540;8.364;2024-01-30T14:15:36;4.38;;;3.97;;
12519;SDS011;6325;49.540;8.364;2024-01-30T14:18:03;4.97;;;4.40;;
12519;SDS011;6325;49.540;8.364;2024-01-30T14:20:30;5.35;;;4.90;;
12519;SDS011;6325;49.540;8.364;2024-01-30T14:22:58;4.90;;;4.50;;
12519;SDS011;6325;49.540;8.364;2024-01-30T14:25:25;4.90;;;4.50;;
12519;SDS011;6325;49.540;8.364;2024-01-30T14:27:52;5.40;;;4.90;;
12519;SDS011;6325;49.540;8.364;2024-01-30T14:30:19;5.38;;;4.88;;
12519;SDS011;6325;49.540;8.364;2024-01-30T14:32:45;4.82;;;4.43;;
12519;SDS011;6325;49.540;8.364;2024-01-30T14:35:13;5.25;;;4.78;;
12519;SDS011;6325;49.540;8.364;2024-01-30T14:37:40;5.57;;;4.97;;
12519;SDS011;6325;49.540;8.364;2024-01-30T14:40:08;5.13;;;4.72;;
12519;SDS011;6325;49.540;8.364;2024-01-30T14:42:35;5.00;;;4.60;;
12519;SDS011;6325;49.540;8.364;2024-01-30T14:45:02;4.72;;;4.32;;
12519;SDS011;6325;49.540;8.364;2024-01-30T14:47:30;4.55;;;4.15;;
12519;SDS011;6325;49.540;8.364;2024-01-30T14:49:57;4.70;;;4.30;;
12519;SDS011;6325;49.540;8.364;2024-01-30T14:52:24;5.03;;;4.53;;
12519;SDS011;6325;49.540;8.364;2024-01-30T14:54:50;4.75;;;4.35;;
12519;SDS011;6325;49.540;8.364;2024-01-30T14:57:18;4.60;;;4.20;;